KBRY/BRY METAR and TAF weather

Enter ICAO airport designator
Station Type Date Time Source
KBRY METAR 2019/02/23 23:15 UTC NOAA

KBRY 232315Z AUTO 00000KT 1 3/4SM OVC008 12/12 A2984 RMK AO1


Station Type Date Time Source
KBRY Decoded METAR 2019/02/23 23:15 UTC NOAA

Station name not available
Feb 23, 2019 - 06:15 PM EST / 2019.02.23 2315 UTC
Wind: Calm:0
Visibility: 1 3/4 mile(s):0
Sky conditions: overcast
Temperature: 53 F (12 C)
Dew Point: 53 F (12 C)
Relative Humidity: 100%
Pressure (altimeter): 29.84 in. Hg (1010 hPa)
ob: KBRY 232315Z AUTO 00000KT 1 3/4SM OVC008 12/12 A2984 RMK AO1
cycle: 23

Station Type Date Time Source
KBRY TAF UTC NOAA

Error!


Example: see airport list